< < Back
Terminal Aerodrome Forecast


Current Version              Previous Versions:   1  2  3  4  5  6  7  8  9  

Terminal Aerodrome Forecast

806
FTUS44 KBMX 041614 AAA
TAFTCL
TAF AMD
KTCL 041614Z 0416/0512 31009G18KT P6SM SCT040
     FM041900 29015G25KT P6SM SCT050
     FM050000 29014G22KT P6SM VCSH BKN050
     FM050300 31010G18KT P6SM FEW050=

Latest METAR

964
SAUS70 KWBC 041700 RRF
MTRTCL
METAR KTCL 041653Z 33009G15KT 10SM CLR 22/06 A2988 RMK AO2 SLP117
T02170061


USA.gov is the U.S. government's official web portal to all federal, state and local government web resources and services.